sensor_id;sensor_type;location;lat;lon;timestamp;pressure;altitude;pressure_sealevel;temperature;humidity
16613;BME280;8419;52.358;9.752;2024-01-30T00:00:01;102188.00;;;13.82;51.08
16613;BME280;8419;52.358;9.752;2024-01-30T00:02:47;102189.00;;;13.79;51.14
16613;BME280;8419;52.358;9.752;2024-01-30T00:16:08;102196.00;;;13.79;50.88
16613;BME280;8419;52.358;9.752;2024-01-30T00:18:54;102192.00;;;13.79;50.82
16613;BME280;8419;52.358;9.752;2024-01-30T00:21:42;102189.00;;;13.83;50.73
16613;BME280;8419;52.358;9.752;2024-01-30T01:27:46;102191.00;;;13.71;49.73
16613;BME280;8419;52.358;9.752;2024-01-30T01:35:44;102189.00;;;13.83;49.43
16613;BME280;8419;52.358;9.752;2024-01-30T01:46:04;102176.00;;;13.97;49.24
16613;BME280;8419;52.358;9.752;2024-01-30T01:48:52;102171.00;;;14.00;49.18
16613;BME280;8419;52.358;9.752;2024-01-30T01:51:39;102181.00;;;14.03;49.05
16613;BME280;8419;52.358;9.752;2024-01-30T01:54:27;102169.00;;;14.05;48.95
16613;BME280;8419;52.358;9.752;2024-01-30T01:57:14;102170.00;;;14.04;48.94
16613;BME280;8419;52.358;9.752;2024-01-30T02:00:01;102167.00;;;14.07;48.86
16613;BME280;8419;52.358;9.752;2024-01-30T02:02:47;102173.00;;;14.04;48.90
16613;BME280;8419;52.358;9.752;2024-01-30T02:05:32;102166.00;;;14.00;48.95
16613;BME280;8419;52.358;9.752;2024-01-30T02:08:18;102158.00;;;14.02;48.87
16613;BME280;8419;52.358;9.752;2024-01-30T02:11:25;102155.00;;;14.00;48.87
16613;BME280;8419;52.358;9.752;2024-01-30T02:14:16;102153.00;;;13.87;49.15
16613;BME280;8419;52.358;9.752;2024-01-30T02:17:01;102143.00;;;13.87;49.09
16613;BME280;8419;52.358;9.752;2024-01-30T02:19:47;102138.00;;;13.87;49.10
16613;BME280;8419;52.358;9.752;2024-01-30T02:22:32;102134.00;;;13.86;49.11
16613;BME280;8419;52.358;9.752;2024-01-30T02:25:20;102126.00;;;13.82;49.24
16613;BME280;8419;52.358;9.752;2024-01-30T02:28:06;102129.00;;;13.93;48.98
16613;BME280;8419;52.358;9.752;2024-01-30T02:30:51;102135.00;;;14.01;48.85
16613;BME280;8419;52.358;9.752;2024-01-30T02:33:37;102135.00;;;14.02;48.86
16613;BME280;8419;52.358;9.752;2024-01-30T02:36:22;102130.00;;;14.04;48.86
16613;BME280;8419;52.358;9.752;2024-01-30T02:39:08;102127.00;;;14.02;48.99
16613;BME280;8419;52.358;9.752;2024-01-30T02:41:53;102126.00;;;14.01;48.99
16613;BME280;8419;52.358;9.752;2024-01-30T02:44:39;102113.00;;;14.10;48.90
16613;BME280;8419;52.358;9.752;2024-01-30T02:47:25;102110.00;;;14.14;48.79
16613;BME280;8419;52.358;9.752;2024-01-30T02:50:11;102109.00;;;14.10;48.92
16613;BME280;8419;52.358;9.752;2024-01-30T02:55:57;102101.00;;;14.21;49.04
16613;BME280;8419;52.358;9.752;2024-01-30T03:01:15;102102.00;;;14.19;48.82
16613;BME280;8419;52.358;9.752;2024-01-30T03:04:01;102090.00;;;14.23;48.68
16613;BME280;8419;52.358;9.752;2024-01-30T03:06:46;102086.00;;;14.24;48.58
16613;BME280;8419;52.358;9.752;2024-01-30T03:09:32;102098.00;;;14.23;48.55
16613;BME280;8419;52.358;9.752;2024-01-30T03:12:18;102079.00;;;14.12;48.67
16613;BME280;8419;52.358;9.752;2024-01-30T03:15:06;102076.00;;;14.10;48.62
16613;BME280;8419;52.358;9.752;2024-01-30T03:17:53;102081.00;;;14.07;48.61
16613;BME280;8419;52.358;9.752;2024-01-30T03:20:39;102074.00;;;13.98;48.71
16613;BME280;8419;52.358;9.752;2024-01-30T03:23:25;102074.00;;;14.23;48.10
16613;BME280;8419;52.358;9.752;2024-01-30T03:26:11;102079.00;;;14.27;47.80
16613;BME280;8419;52.358;9.752;2024-01-30T03:28:57;102068.00;;;14.17;47.94
16613;BME280;8419;52.358;9.752;2024-01-30T03:31:43;102078.00;;;14.17;47.85
16613;BME280;8419;52.358;9.752;2024-01-30T03:34:29;102077.00;;;14.15;47.82
16613;BME280;8419;52.358;9.752;2024-01-30T03:37:14;102077.00;;;13.95;48.09
16613;BME280;8419;52.358;9.752;2024-01-30T03:40:01;102072.00;;;13.83;48.41
16613;BME280;8419;52.358;9.752;2024-01-30T03:42:46;102075.00;;;14.18;47.54
16613;BME280;8419;52.358;9.752;2024-01-30T03:45:32;102069.00;;;14.26;47.29
16613;BME280;8419;52.358;9.752;2024-01-30T03:48:18;102075.00;;;13.91;47.95
16613;BME280;8419;52.358;9.752;2024-01-30T03:51:05;102067.00;;;13.83;48.18
16613;BME280;8419;52.358;9.752;2024-01-30T03:53:50;102070.00;;;13.82;48.16
16613;BME280;8419;52.358;9.752;2024-01-30T03:56:36;102067.00;;;13.79;48.13
16613;BME280;8419;52.358;9.752;2024-01-30T03:59:22;102067.00;;;13.79;48.08
16613;BME280;8419;52.358;9.752;2024-01-30T04:02:10;102069.00;;;13.80;48.02
16613;BME280;8419;52.358;9.752;2024-01-30T04:04:56;102070.00;;;13.75;48.02
16613;BME280;8419;52.358;9.752;2024-01-30T04:07:43;102069.00;;;13.74;47.98
16613;BME280;8419;52.358;9.752;2024-01-30T04:10:29;102058.00;;;13.71;48.02
16613;BME280;8419;52.358;9.752;2024-01-30T04:13:17;102069.00;;;13.74;47.86
16613;BME280;8419;52.358;9.752;2024-01-30T04:16:07;102058.00;;;13.71;47.90
16613;BME280;8419;52.358;9.752;2024-01-30T04:18:53;102058.00;;;13.60;48.10
16613;BME280;8419;52.358;9.752;2024-01-30T04:21:38;102059.00;;;13.61;48.05
16613;BME280;8419;52.358;9.752;2024-01-30T04:24:26;102051.00;;;13.61;48.04
16613;BME280;8419;52.358;9.752;2024-01-30T04:27:11;102056.00;;;13.64;47.97
16613;BME280;8419;52.358;9.752;2024-01-30T04:29:57;102055.00;;;13.66;47.86
16613;BME280;8419;52.358;9.752;2024-01-30T04:32:47;102061.00;;;13.62;47.91
16613;BME280;8419;52.358;9.752;2024-01-30T04:35:32;102067.00;;;13.70;47.75
16613;BME280;8419;52.358;9.752;2024-01-30T04:38:19;102063.00;;;13.87;47.15
16613;BME280;8419;52.358;9.752;2024-01-30T04:41:05;102066.00;;;13.87;47.34
16613;BME280;8419;52.358;9.752;2024-01-30T04:43:51;102058.00;;;13.71;47.47
16613;BME280;8419;52.358;9.752;2024-01-30T04:46:36;102062.00;;;13.64;47.60
16613;BME280;8419;52.358;9.752;2024-01-30T04:49:22;102068.00;;;13.62;47.61
16613;BME280;8419;52.358;9.752;2024-01-30T04:52:08;102062.00;;;13.59;47.59
16613;BME280;8419;52.358;9.752;2024-01-30T04:54:54;102059.00;;;13.56;47.55
16613;BME280;8419;52.358;9.752;2024-01-30T04:57:40;102052.00;;;13.88;46.83
16613;BME280;8419;52.358;9.752;2024-01-30T05:00:25;102054.00;;;13.88;46.73
16613;BME280;8419;52.358;9.752;2024-01-30T05:03:11;102056.00;;;13.57;47.29
16613;BME280;8419;52.358;9.752;2024-01-30T05:05:58;102052.00;;;13.52;47.41
16613;BME280;8419;52.358;9.752;2024-01-30T05:08:46;102055.00;;;13.42;47.69
16613;BME280;8419;52.358;9.752;2024-01-30T05:11:31;102049.00;;;13.68;47.09
16613;BME280;8419;52.358;9.752;2024-01-30T05:14:19;102051.00;;;13.58;47.08
16613;BME280;8419;52.358;9.752;2024-01-30T05:17:05;102051.00;;;13.73;46.79
16613;BME280;8419;52.358;9.752;2024-01-30T05:19:50;102057.00;;;13.74;46.71
16613;BME280;8419;52.358;9.752;2024-01-30T05:22:37;102060.00;;;13.75;46.68
16613;BME280;8419;52.358;9.752;2024-01-30T05:25:22;102058.00;;;13.77;46.56
16613;BME280;8419;52.358;9.752;2024-01-30T05:28:08;102056.00;;;13.78;46.57
16613;BME280;8419;52.358;9.752;2024-01-30T05:30:54;102062.00;;;13.79;46.51
16613;BME280;8419;52.358;9.752;2024-01-30T05:33:40;102058.00;;;13.80;46.44
16613;BME280;8419;52.358;9.752;2024-01-30T05:36:27;102057.00;;;13.83;46.38
16613;BME280;8419;52.358;9.752;2024-01-30T05:39:12;102054.00;;;13.69;46.61
16613;BME280;8419;52.358;9.752;2024-01-30T05:41:58;102058.00;;;13.62;46.70
16613;BME280;8419;52.358;9.752;2024-01-30T05:44:44;102059.00;;;13.72;46.51
16613;BME280;8419;52.358;9.752;2024-01-30T05:52:32;102054.00;;;13.66;46.52
16613;BME280;8419;52.358;9.752;2024-01-30T05:57:52;102063.00;;;13.28;47.42
16613;BME280;8419;52.358;9.752;2024-01-30T06:00:38;102057.00;;;13.26;47.45
16613;BME280;8419;52.358;9.752;2024-01-30T06:03:24;102054.00;;;13.31;47.33
16613;BME280;8419;52.358;9.752;2024-01-30T06:06:09;102056.00;;;13.31;47.36
16613;BME280;8419;52.358;9.752;2024-01-30T06:11:28;102055.00;;;13.32;47.27
16613;BME280;8419;52.358;9.752;2024-01-30T06:14:14;102058.00;;;13.28;47.37
16613;BME280;8419;52.358;9.752;2024-01-30T06:16:59;102056.00;;;13.34;47.29
16613;BME280;8419;52.358;9.752;2024-01-30T06:19:45;102056.00;;;13.33;47.25
16613;BME280;8419;52.358;9.752;2024-01-30T06:22:31;102048.00;;;13.47;47.06
16613;BME280;8419;52.358;9.752;2024-01-30T06:25:16;102050.00;;;13.62;46.50
16613;BME280;8419;52.358;9.752;2024-01-30T06:28:04;102051.00;;;13.70;46.31
16613;BME280;8419;52.358;9.752;2024-01-30T06:30:49;102034.00;;;13.67;46.37
16613;BME280;8419;52.358;9.752;2024-01-30T06:33:35;102039.00;;;13.72;46.20
16613;BME280;8419;52.358;9.752;2024-01-30T06:36:21;102037.00;;;13.71;46.22
16613;BME280;8419;52.358;9.752;2024-01-30T06:39:06;102037.00;;;13.59;46.41
16613;BME280;8419;52.358;9.752;2024-01-30T06:41:52;102032.00;;;13.26;47.26
16613;BME280;8419;52.358;9.752;2024-01-30T06:44:37;102034.00;;;13.21;47.33
16613;BME280;8419;52.358;9.752;2024-01-30T06:47:23;102024.00;;;13.25;47.29
16613;BME280;8419;52.358;9.752;2024-01-30T06:50:18;102026.00;;;13.25;47.30
16613;BME280;8419;52.358;9.752;2024-01-30T06:53:04;102033.00;;;13.29;47.28
16613;BME280;8419;52.358;9.752;2024-01-30T06:55:49;102025.00;;;13.27;47.24
16613;BME280;8419;52.358;9.752;2024-01-30T06:58:35;102028.00;;;13.38;46.97
16613;BME280;8419;52.358;9.752;2024-01-30T07:01:21;102032.00;;;13.37;46.93
16613;BME280;8419;52.358;9.752;2024-01-30T07:04:12;102030.00;;;13.40;46.90
16613;BME280;8419;52.358;9.752;2024-01-30T07:06:58;102032.00;;;13.56;46.50
16613;BME280;8419;52.358;9.752;2024-01-30T07:09:44;102034.00;;;13.40;46.76
16613;BME280;8419;52.358;9.752;2024-01-30T07:12:31;102037.00;;;13.34;46.86
16613;BME280;8419;52.358;9.752;2024-01-30T07:15:16;102028.00;;;13.30;46.96
16613;BME280;8419;52.358;9.752;2024-01-30T07:18:06;102038.00;;;13.31;46.90
16613;BME280;8419;52.358;9.752;2024-01-30T07:20:52;102032.00;;;13.34;46.88
16613;BME280;8419;52.358;9.752;2024-01-30T07:23:38;102039.00;;;13.38;46.78
16613;BME280;8419;52.358;9.752;2024-01-30T07:26:24;102036.00;;;13.44;46.70
16613;BME280;8419;52.358;9.752;2024-01-30T07:29:09;102034.00;;;13.48;46.66
16613;BME280;8419;52.358;9.752;2024-01-30T07:31:58;102038.00;;;13.55;46.53
16613;BME280;8419;52.358;9.752;2024-01-30T07:34:44;102027.00;;;13.79;46.07
16613;BME280;8419;52.358;9.752;2024-01-30T07:37:29;102029.00;;;13.99;45.54
16613;BME280;8419;52.358;9.752;2024-01-30T07:40:15;102039.00;;;14.08;45.37
16613;BME280;8419;52.358;9.752;2024-01-30T07:43:01;102033.00;;;14.13;45.28
16613;BME280;8419;52.358;9.752;2024-01-30T07:45:48;102036.00;;;14.14;45.28
16613;BME280;8419;52.358;9.752;2024-01-30T07:48:34;102029.00;;;14.18;45.21
16613;BME280;8419;52.358;9.752;2024-01-30T07:53:53;102038.00;;;13.91;45.98
16613;BME280;8419;52.358;9.752;2024-01-30T07:56:41;102033.00;;;13.94;46.01
16613;BME280;8419;52.358;9.752;2024-01-30T07:59:27;102027.00;;;14.01;45.91
16613;BME280;8419;52.358;9.752;2024-01-30T08:02:13;102032.00;;;14.10;45.83
16613;BME280;8419;52.358;9.752;2024-01-30T08:04:59;102030.00;;;14.18;45.72
16613;BME280;8419;52.358;9.752;2024-01-30T08:07:45;102032.00;;;14.25;45.65
16613;BME280;8419;52.358;9.752;2024-01-30T08:10:31;102032.00;;;14.31;45.56
16613;BME280;8419;52.358;9.752;2024-01-30T08:13:17;102030.00;;;14.37;45.52
16613;BME280;8419;52.358;9.752;2024-01-30T08:16:03;102032.00;;;14.43;45.42
16613;BME280;8419;52.358;9.752;2024-01-30T08:18:49;102025.00;;;14.48;45.39
16613;BME280;8419;52.358;9.752;2024-01-30T08:21:34;102021.00;;;14.51;45.32
16613;BME280;8419;52.358;9.752;2024-01-30T08:24:21;102022.00;;;14.56;45.26
16613;BME280;8419;52.358;9.752;2024-01-30T08:27:06;102017.00;;;14.59;45.19
16613;BME280;8419;52.358;9.752;2024-01-30T08:29:54;102010.00;;;14.68;45.08
16613;BME280;8419;52.358;9.752;2024-01-30T08:32:40;102015.00;;;14.74;45.00
16613;BME280;8419;52.358;9.752;2024-01-30T08:35:25;102019.00;;;14.76;44.97
16613;BME280;8419;52.358;9.752;2024-01-30T08:38:11;102016.00;;;14.80;44.97
16613;BME280;8419;52.358;9.752;2024-01-30T08:40:57;102021.00;;;14.84;44.89
16613;BME280;8419;52.358;9.752;2024-01-30T08:43:43;102018.00;;;14.91;44.80
16613;BME280;8419;52.358;9.752;2024-01-30T08:46:29;102015.00;;;14.95;44.78
16613;BME280;8419;52.358;9.752;2024-01-30T08:49:17;102029.00;;;15.04;44.71
16613;BME280;8419;52.358;9.752;2024-01-30T08:52:03;102027.00;;;15.06;44.66
16613;BME280;8419;52.358;9.752;2024-01-30T08:57:24;102031.00;;;15.22;44.42
16613;BME280;8419;52.358;9.752;2024-01-30T09:00:15;102030.00;;;15.23;44.41
16613;BME280;8419;52.358;9.752;2024-01-30T09:03:01;102026.00;;;15.24;44.41
16613;BME280;8419;52.358;9.752;2024-01-30T09:05:46;102022.00;;;15.29;44.35
16613;BME280;8419;52.358;9.752;2024-01-30T09:16:17;102020.00;;;15.36;44.32
16613;BME280;8419;52.358;9.752;2024-01-30T09:24:07;102022.00;;;15.56;44.02
16613;BME280;8419;52.358;9.752;2024-01-30T09:26:54;102016.00;;;15.57;43.99
16613;BME280;8419;52.358;9.752;2024-01-30T09:29:39;102012.00;;;15.61;43.93
16613;BME280;8419;52.358;9.752;2024-01-30T09:32:25;102009.00;;;15.67;43.90
16613;BME280;8419;52.358;9.752;2024-01-30T09:35:11;102016.00;;;15.73;43.85
16613;BME280;8419;52.358;9.752;2024-01-30T09:37:57;102012.00;;;15.77;43.78
16613;BME280;8419;52.358;9.752;2024-01-30T09:40:43;102015.00;;;15.85;43.66
16613;BME280;8419;52.358;9.752;2024-01-30T09:43:33;102013.00;;;15.91;43.63
16613;BME280;8419;52.358;9.752;2024-01-30T09:46:21;102015.00;;;16.02;43.51
16613;BME280;8419;52.358;9.752;2024-01-30T09:49:09;102010.00;;;16.10;43.34
16613;BME280;8419;52.358;9.752;2024-01-30T09:51:55;102016.00;;;16.18;43.20
16613;BME280;8419;52.358;9.752;2024-01-30T09:54:42;102023.00;;;16.19;43.32
16613;BME280;8419;52.358;9.752;2024-01-30T09:57:28;102024.00;;;16.31;43.13
16613;BME280;8419;52.358;9.752;2024-01-30T10:00:15;102030.00;;;16.40;43.01
16613;BME280;8419;52.358;9.752;2024-01-30T10:03:01;102030.00;;;16.50;42.92
16613;BME280;8419;52.358;9.752;2024-01-30T10:05:51;102029.00;;;16.64;42.73
16613;BME280;8419;52.358;9.752;2024-01-30T10:08:37;102020.00;;;16.74;42.55
16613;BME280;8419;52.358;9.752;2024-01-30T10:11:23;102026.00;;;16.76;42.46
16613;BME280;8419;52.358;9.752;2024-01-30T10:14:08;102021.00;;;16.82;42.39
16613;BME280;8419;52.358;9.752;2024-01-30T10:16:57;102013.00;;;16.89;42.29
16613;BME280;8419;52.358;9.752;2024-01-30T10:19:42;102010.00;;;16.93;42.22
16613;BME280;8419;52.358;9.752;2024-01-30T10:22:28;102009.00;;;17.04;42.08
16613;BME280;8419;52.358;9.752;2024-01-30T10:25:14;102009.00;;;17.10;41.99
16613;BME280;8419;52.358;9.752;2024-01-30T10:28:00;102003.00;;;17.17;41.93
16613;BME280;8419;52.358;9.752;2024-01-30T10:30:46;101993.00;;;17.19;41.91
16613;BME280;8419;52.358;9.752;2024-01-30T10:33:31;102000.00;;;17.31;41.79
16613;BME280;8419;52.358;9.752;2024-01-30T10:36:18;101988.00;;;17.48;41.51
16613;BME280;8419;52.358;9.752;2024-01-30T10:39:05;101988.00;;;17.54;41.48
16613;BME280;8419;52.358;9.752;2024-01-30T10:41:54;101988.00;;;17.62;41.34
16613;BME280;8419;52.358;9.752;2024-01-30T10:44:51;101991.00;;;17.65;41.32
16613;BME280;8419;52.358;9.752;2024-01-30T10:47:47;101979.00;;;17.72;41.29
16613;BME280;8419;52.358;9.752;2024-01-30T10:50:35;101981.00;;;17.78;41.24
16613;BME280;8419;52.358;9.752;2024-01-30T10:53:36;101988.00;;;17.89;41.05
16613;BME280;8419;52.358;9.752;2024-01-30T10:56:23;101979.00;;;17.97;41.06
16613;BME280;8419;52.358;9.752;2024-01-30T10:59:10;101978.00;;;18.00;41.00
16613;BME280;8419;52.358;9.752;2024-01-30T11:01:56;101978.00;;;18.03;40.96
16613;BME280;8419;52.358;9.752;2024-01-30T11:04:42;101986.00;;;18.06;40.89
16613;BME280;8419;52.358;9.752;2024-01-30T11:07:30;101979.00;;;18.10;40.83
16613;BME280;8419;52.358;9.752;2024-01-30T11:10:16;101976.00;;;18.18;40.79
16613;BME280;8419;52.358;9.752;2024-01-30T11:13:13;101975.00;;;18.21;40.67
16613;BME280;8419;52.358;9.752;2024-01-30T11:16:01;101975.00;;;18.24;40.67
16613;BME280;8419;52.358;9.752;2024-01-30T11:18:50;101974.00;;;18.28;40.61
16613;BME280;8419;52.358;9.752;2024-01-30T11:21:41;101966.00;;;18.38;40.45
16613;BME280;8419;52.358;9.752;2024-01-30T11:24:28;101966.00;;;18.44;40.43
16613;BME280;8419;52.358;9.752;2024-01-30T11:27:13;101962.00;;;18.52;40.27
16613;BME280;8419;52.358;9.752;2024-01-30T11:30:02;101955.00;;;18.53;40.33
16613;BME280;8419;52.358;9.752;2024-01-30T11:33:02;101968.00;;;18.68;40.15
16613;BME280;8419;52.358;9.752;2024-01-30T11:35:49;101974.00;;;18.79;39.96
16613;BME280;8419;52.358;9.752;2024-01-30T11:38:35;101969.00;;;18.89;39.82
16613;BME280;8419;52.358;9.752;2024-01-30T11:41:21;101964.00;;;18.89;39.71
16613;BME280;8419;52.358;9.752;2024-01-30T11:44:07;101957.00;;;18.86;39.76
16613;BME280;8419;52.358;9.752;2024-01-30T11:46:54;101951.00;;;18.88;39.73
16613;BME280;8419;52.358;9.752;2024-01-30T11:49:40;101948.00;;;18.83;39.92
16613;BME280;8419;52.358;9.752;2024-01-30T11:52:25;101947.00;;;18.89;39.84
16613;BME280;8419;52.358;9.752;2024-01-30T11:55:11;101943.00;;;19.01;39.68
16613;BME280;8419;52.358;9.752;2024-01-30T11:57:59;101951.00;;;19.03;39.66
16613;BME280;8419;52.358;9.752;2024-01-30T12:00:53;101940.00;;;19.10;39.55
16613;BME280;8419;52.358;9.752;2024-01-30T12:06:13;101926.00;;;19.33;39.47
16613;BME280;8419;52.358;9.752;2024-01-30T12:16:35;101923.00;;;19.51;39.25
16613;BME280;8419;52.358;9.752;2024-01-30T12:19:25;101914.00;;;19.58;39.23
16613;BME280;8419;52.358;9.752;2024-01-30T12:22:11;101902.00;;;19.74;39.09
16613;BME280;8419;52.358;9.752;2024-01-30T12:24:57;101921.00;;;19.84;38.92
16613;BME280;8419;52.358;9.752;2024-01-30T12:27:44;101925.00;;;19.84;39.03
16613;BME280;8419;52.358;9.752;2024-01-30T12:30:31;101944.00;;;20.04;38.73
16613;BME280;8419;52.358;9.752;2024-01-30T12:33:19;101948.00;;;20.21;38.52
16613;BME280;8419;52.358;9.752;2024-01-30T12:36:06;101947.00;;;20.36;38.29
16613;BME280;8419;52.358;9.752;2024-01-30T12:38:52;101954.00;;;20.35;38.28
16613;BME280;8419;52.358;9.752;2024-01-30T12:41:38;101950.00;;;20.71;37.51
16613;BME280;8419;52.358;9.752;2024-01-30T12:44:24;101946.00;;;20.78;37.37
16613;BME280;8419;52.358;9.752;2024-01-30T12:47:10;101942.00;;;20.85;37.26
16613;BME280;8419;52.358;9.752;2024-01-30T12:49:56;101927.00;;;20.86;37.27
16613;BME280;8419;52.358;9.752;2024-01-30T12:52:42;101934.00;;;20.90;37.19
16613;BME280;8419;52.358;9.752;2024-01-30T12:55:28;101944.00;;;20.77;37.25
16613;BME280;8419;52.358;9.752;2024-01-30T12:58:15;101941.00;;;20.63;37.32
16613;BME280;8419;52.358;9.752;2024-01-30T13:01:00;101947.00;;;20.50;37.33
16613;BME280;8419;52.358;9.752;2024-01-30T13:03:46;101945.00;;;20.41;37.38
16613;BME280;8419;52.358;9.752;2024-01-30T13:06:32;101944.00;;;20.39;37.28
16613;BME280;8419;52.358;9.752;2024-01-30T13:09:17;101941.00;;;20.34;37.21
16613;BME280;8419;52.358;9.752;2024-01-30T13:12:04;101943.00;;;20.23;37.37
16613;BME280;8419;52.358;9.752;2024-01-30T13:14:50;101935.00;;;20.23;37.42
16613;BME280;8419;52.358;9.752;2024-01-30T13:17:35;101933.00;;;20.36;37.28
16613;BME280;8419;52.358;9.752;2024-01-30T13:20:21;101940.00;;;20.35;37.15
16613;BME280;8419;52.358;9.752;2024-01-30T13:23:06;101947.00;;;20.36;37.17
16613;BME280;8419;52.358;9.752;2024-01-30T13:25:52;101950.00;;;20.30;37.35
16613;BME280;8419;52.358;9.752;2024-01-30T13:28:39;101954.00;;;20.37;37.20
16613;BME280;8419;52.358;9.752;2024-01-30T13:31:26;101956.00;;;20.38;37.17
16613;BME280;8419;52.358;9.752;2024-01-30T13:34:14;101954.00;;;20.29;37.35
16613;BME280;8419;52.358;9.752;2024-01-30T13:37:00;101961.00;;;20.32;37.31
16613;BME280;8419;52.358;9.752;2024-01-30T13:39:47;101960.00;;;20.31;37.27
16613;BME280;8419;52.358;9.752;2024-01-30T13:42:32;101963.00;;;20.25;37.46
16613;BME280;8419;52.358;9.752;2024-01-30T13:45:18;101970.00;;;20.26;37.31
16613;BME280;8419;52.358;9.752;2024-01-30T13:48:06;101970.00;;;20.26;37.28
16613;BME280;8419;52.358;9.752;2024-01-30T13:50:52;101970.00;;;20.10;37.53
16613;BME280;8419;52.358;9.752;2024-01-30T13:53:40;101970.00;;;20.01;37.56
16613;BME280;8419;52.358;9.752;2024-01-30T13:56:26;101959.00;;;19.97;37.63
16613;BME280;8419;52.358;9.752;2024-01-30T13:59:12;101969.00;;;19.89;37.70
16613;BME280;8419;52.358;9.752;2024-01-30T14:01:58;101969.00;;;19.83;37.84
16613;BME280;8419;52.358;9.752;2024-01-30T14:04:43;101962.00;;;19.80;37.88
16613;BME280;8419;52.358;9.752;2024-01-30T14:07:35;101958.00;;;19.62;38.10
16613;BME280;8419;52.358;9.752;2024-01-30T14:10:21;101971.00;;;19.35;38.65
16613;BME280;8419;52.358;9.752;2024-01-30T14:13:08;101961.00;;;19.16;39.04
16613;BME280;8419;52.358;9.752;2024-01-30T14:15:55;101957.00;;;19.52;38.42
16613;BME280;8419;52.358;9.752;2024-01-30T14:18:43;101959.00;;;19.56;38.29
16613;BME280;8419;52.358;9.752;2024-01-30T14:21:29;101959.00;;;19.53;38.38
16613;BME280;8419;52.358;9.752;2024-01-30T14:24:14;101968.00;;;19.49;38.44
16613;BME280;8419;52.358;9.752;2024-01-30T14:27:00;101958.00;;;19.17;39.01
16613;BME280;8419;52.358;9.752;2024-01-30T14:29:48;101953.00;;;19.15;39.09
16613;BME280;8419;52.358;9.752;2024-01-30T14:32:34;101948.00;;;19.15;39.10
16613;BME280;8419;52.358;9.752;2024-01-30T14:35:20;101951.00;;;19.09;39.24
16613;BME280;8419;52.358;9.752;2024-01-30T14:38:05;101946.00;;;19.06;39.24
16613;BME280;8419;52.358;9.752;2024-01-30T14:40:52;101961.00;;;19.01;39.38
16613;BME280;8419;52.358;9.752;2024-01-30T14:43:38;101952.00;;;19.02;39.34
16613;BME280;8419;52.358;9.752;2024-01-30T14:46:25;101948.00;;;19.07;39.28
16613;BME280;8419;52.358;9.752;2024-01-30T14:49:11;101941.00;;;19.04;39.29
16613;BME280;8419;52.358;9.752;2024-01-30T14:51:57;101946.00;;;18.99;39.33
16613;BME280;8419;52.358;9.752;2024-01-30T14:54:44;101951.00;;;19.01;39.35
16613;BME280;8419;52.358;9.752;2024-01-30T14:57:32;101945.00;;;19.01;39.35
16613;BME280;8419;52.358;9.752;2024-01-30T15:00:20;101949.00;;;18.98;39.37
16613;BME280;8419;52.358;9.752;2024-01-30T15:03:05;101951.00;;;18.96;39.42
16613;BME280;8419;52.358;9.752;2024-01-30T15:05:52;101950.00;;;18.95;39.46
16613;BME280;8419;52.358;9.752;2024-01-30T15:08:39;101957.00;;;18.95;39.51
16613;BME280;8419;52.358;9.752;2024-01-30T15:11:25;101957.00;;;18.92;39.55
16613;BME280;8419;52.358;9.752;2024-01-30T15:14:10;101952.00;;;18.95;39.55
16613;BME280;8419;52.358;9.752;2024-01-30T15:17:08;101954.00;;;18.96;39.57
16613;BME280;8419;52.358;9.752;2024-01-30T15:19:54;101960.00;;;19.02;39.55
16613;BME280;8419;52.358;9.752;2024-01-30T15:22:39;101968.00;;;18.98;39.57
16613;BME280;8419;52.358;9.752;2024-01-30T15:25:25;101958.00;;;18.95;39.68
16613;BME280;8419;52.358;9.752;2024-01-30T15:28:13;101968.00;;;18.93;39.78
16613;BME280;8419;52.358;9.752;2024-01-30T15:31:00;101958.00;;;19.22;39.31
16613;BME280;8419;52.358;9.752;2024-01-30T15:33:46;101963.00;;;19.36;38.98
16613;BME280;8419;52.358;9.752;2024-01-30T15:36:32;101963.00;;;19.36;38.99
16613;BME280;8419;52.358;9.752;2024-01-30T15:39:19;101970.00;;;19.34;39.01
16613;BME280;8419;52.358;9.752;2024-01-30T15:42:05;101984.00;;;19.39;39.00
16613;BME280;8419;52.358;9.752;2024-01-30T15:44:51;101978.00;;;19.01;39.72
16613;BME280;8419;52.358;9.752;2024-01-30T15:47:48;101984.00;;;18.95;39.89
16613;BME280;8419;52.358;9.752;2024-01-30T15:50:34;101982.00;;;18.95;39.91
16613;BME280;8419;52.358;9.752;2024-01-30T16:00:55;101994.00;;;18.97;39.96
16613;BME280;8419;52.358;9.752;2024-01-30T16:03:42;101994.00;;;19.03;39.90
16613;BME280;8419;52.358;9.752;2024-01-30T16:09:04;102000.00;;;18.96;40.02
16613;BME280;8419;52.358;9.752;2024-01-30T16:11:49;102007.00;;;19.01;39.92
16613;BME280;8419;52.358;9.752;2024-01-30T16:14:37;101997.00;;;18.99;39.92
16613;BME280;8419;52.358;9.752;2024-01-30T16:17:22;102008.00;;;18.96;39.98
16613;BME280;8419;52.358;9.752;2024-01-30T16:20:09;102004.00;;;18.97;39.94
16613;BME280;8419;52.358;9.752;2024-01-30T16:22:54;102009.00;;;18.89;40.07
16613;BME280;8419;52.358;9.752;2024-01-30T16:25:41;102005.00;;;18.96;39.96
16613;BME280;8419;52.358;9.752;2024-01-30T16:28:27;102010.00;;;18.94;39.97
16613;BME280;8419;52.358;9.752;2024-01-30T16:33:46;102016.00;;;18.83;40.18
16613;BME280;8419;52.358;9.752;2024-01-30T16:36:35;102022.00;;;18.79;40.25
16613;BME280;8419;52.358;9.752;2024-01-30T16:47:01;102024.00;;;18.84;40.17
16613;BME280;8419;52.358;9.752;2024-01-30T17:00:00;102048.00;;;18.85;40.19
16613;BME280;8419;52.358;9.752;2024-01-30T17:02:46;102045.00;;;19.15;39.64
16613;BME280;8419;52.358;9.752;2024-01-30T17:05:35;102044.00;;;19.19;39.59
16613;BME280;8419;52.358;9.752;2024-01-30T17:08:21;102044.00;;;19.21;39.55
16613;BME280;8419;52.358;9.752;2024-01-30T17:11:07;102044.00;;;19.16;39.60
16613;BME280;8419;52.358;9.752;2024-01-30T17:13:53;102036.00;;;19.10;39.67
16613;BME280;8419;52.358;9.752;2024-01-30T17:16:42;102041.00;;;19.02;39.83
16613;BME280;8419;52.358;9.752;2024-01-30T17:19:30;102043.00;;;19.02;39.85
16613;BME280;8419;52.358;9.752;2024-01-30T17:22:16;102042.00;;;19.01;39.87